sensor_id;sensor_type;location;lat;lon;timestamp;P1;durP1;ratioP1;P2;durP2;ratioP2
12896;SDS011;6516;35.028;32.372;2023-02-26T00:01:25;16.70;;;11.25;;
12896;SDS011;6516;35.028;32.372;2023-02-26T00:03:55;18.52;;;11.27;;
12896;SDS011;6516;35.028;32.372;2023-02-26T00:06:28;17.43;;;11.13;;
12896;SDS011;6516;35.028;32.372;2023-02-26T00:08:58;21.42;;;12.27;;
12896;SDS011;6516;35.028;32.372;2023-02-26T00:11:27;25.00;;;12.65;;
12896;SDS011;6516;35.028;32.372;2023-02-26T00:13:56;18.77;;;11.60;;
12896;SDS011;6516;35.028;32.372;2023-02-26T00:16:25;19.00;;;12.70;;
12896;SDS011;6516;35.028;32.372;2023-02-26T00:18:56;19.77;;;12.50;;
12896;SDS011;6516;35.028;32.372;2023-02-26T00:21:26;18.35;;;12.18;;
12896;SDS011;6516;35.028;32.372;2023-02-26T00:23:54;19.05;;;11.77;;
12896;SDS011;6516;35.028;32.372;2023-02-26T00:26:23;22.50;;;12.52;;
12896;SDS011;6516;35.028;32.372;2023-02-26T00:28:54;19.13;;;12.60;;
12896;SDS011;6516;35.028;32.372;2023-02-26T00:31:23;20.10;;;13.00;;
12896;SDS011;6516;35.028;32.372;2023-02-26T00:33:52;21.98;;;13.30;;
12896;SDS011;6516;35.028;32.372;2023-02-26T00:36:22;21.08;;;12.63;;
12896;SDS011;6516;35.028;32.372;2023-02-26T00:39:01;19.65;;;12.95;;
12896;SDS011;6516;35.028;32.372;2023-02-26T00:41:39;20.90;;;12.73;;
12896;SDS011;6516;35.028;32.372;2023-02-26T00:44:10;19.67;;;12.63;;
12896;SDS011;6516;35.028;32.372;2023-02-26T00:46:40;21.00;;;13.05;;
12896;SDS011;6516;35.028;32.372;2023-02-26T00:49:17;20.08;;;12.75;;
12896;SDS011;6516;35.028;32.372;2023-02-26T00:51:55;19.10;;;12.10;;
12896;SDS011;6516;35.028;32.372;2023-02-26T00:54:25;18.60;;;12.23;;
12896;SDS011;6516;35.028;32.372;2023-02-26T00:56:55;21.20;;;12.50;;
12896;SDS011;6516;35.028;32.372;2023-02-26T00:59:26;19.77;;;12.57;;
12896;SDS011;6516;35.028;32.372;2023-02-26T01:01:54;21.10;;;13.02;;
12896;SDS011;6516;35.028;32.372;2023-02-26T01:04:22;19.55;;;12.73;;
12896;SDS011;6516;35.028;32.372;2023-02-26T01:06:52;18.67;;;12.13;;
12896;SDS011;6516;35.028;32.372;2023-02-26T01:09:24;20.10;;;12.47;;
12896;SDS011;6516;35.028;32.372;2023-02-26T01:11:55;20.02;;;12.77;;
12896;SDS011;6516;35.028;32.372;2023-02-26T01:14:28;21.80;;;13.48;;
12896;SDS011;6516;35.028;32.372;2023-02-26T01:16:58;19.95;;;12.75;;
12896;SDS011;6516;35.028;32.372;2023-02-26T01:19:32;22.33;;;14.20;;
12896;SDS011;6516;35.028;32.372;2023-02-26T01:22:09;20.67;;;13.60;;
12896;SDS011;6516;35.028;32.372;2023-02-26T01:24:43;23.40;;;14.75;;
12896;SDS011;6516;35.028;32.372;2023-02-26T01:27:14;20.92;;;13.35;;
12896;SDS011;6516;35.028;32.372;2023-02-26T01:29:44;22.38;;;13.30;;
12896;SDS011;6516;35.028;32.372;2023-02-26T01:32:14;22.80;;;13.55;;
12896;SDS011;6516;35.028;32.372;2023-02-26T01:34:47;23.67;;;13.77;;
12896;SDS011;6516;35.028;32.372;2023-02-26T01:37:24;21.90;;;14.43;;
12896;SDS011;6516;35.028;32.372;2023-02-26T01:40:02;23.60;;;14.30;;
12896;SDS011;6516;35.028;32.372;2023-02-26T01:42:59;22.45;;;14.38;;
12896;SDS011;6516;35.028;32.372;2023-02-26T01:45:36;21.05;;;13.18;;
12896;SDS011;6516;35.028;32.372;2023-02-26T01:48:23;22.67;;;13.67;;
12896;SDS011;6516;35.028;32.372;2023-02-26T01:51:03;21.55;;;12.95;;
12896;SDS011;6516;35.028;32.372;2023-02-26T01:53:31;19.90;;;12.88;;
12896;SDS011;6516;35.028;32.372;2023-02-26T01:56:00;22.90;;;13.63;;
12896;SDS011;6516;35.028;32.372;2023-02-26T01:58:33;22.90;;;14.05;;
12896;SDS011;6516;35.028;32.372;2023-02-26T02:01:04;23.57;;;13.43;;
12896;SDS011;6516;35.028;32.372;2023-02-26T02:03:34;21.83;;;13.48;;
12896;SDS011;6516;35.028;32.372;2023-02-26T02:06:06;22.35;;;13.88;;
12896;SDS011;6516;35.028;32.372;2023-02-26T02:08:36;22.73;;;14.68;;
12896;SDS011;6516;35.028;32.372;2023-02-26T02:11:05;22.85;;;14.43;;
12896;SDS011;6516;35.028;32.372;2023-02-26T02:13:40;23.40;;;14.93;;
12896;SDS011;6516;35.028;32.372;2023-02-26T02:16:30;22.65;;;13.93;;
12896;SDS011;6516;35.028;32.372;2023-02-26T02:19:18;21.42;;;13.95;;
12896;SDS011;6516;35.028;32.372;2023-02-26T02:22:10;23.88;;;15.13;;
12896;SDS011;6516;35.028;32.372;2023-02-26T02:25:13;22.25;;;13.98;;
12896;SDS011;6516;35.028;32.372;2023-02-26T02:28:05;22.03;;;13.43;;
12896;SDS011;6516;35.028;32.372;2023-02-26T02:30:56;24.40;;;14.98;;
12896;SDS011;6516;35.028;32.372;2023-02-26T02:33:33;22.67;;;14.35;;
12896;SDS011;6516;35.028;32.372;2023-02-26T02:36:09;24.50;;;15.23;;
12896;SDS011;6516;35.028;32.372;2023-02-26T02:38:44;24.60;;;13.82;;
12896;SDS011;6516;35.028;32.372;2023-02-26T02:41:16;23.73;;;14.27;;
12896;SDS011;6516;35.028;32.372;2023-02-26T02:43:50;22.90;;;14.23;;
12896;SDS011;6516;35.028;32.372;2023-02-26T02:46:23;23.77;;;14.63;;
12896;SDS011;6516;35.028;32.372;2023-02-26T02:48:56;26.13;;;15.93;;
12896;SDS011;6516;35.028;32.372;2023-02-26T02:51:30;26.33;;;15.50;;
12896;SDS011;6516;35.028;32.372;2023-02-26T02:54:00;25.20;;;15.10;;
12896;SDS011;6516;35.028;32.372;2023-02-26T02:56:34;24.13;;;14.43;;
12896;SDS011;6516;35.028;32.372;2023-02-26T02:59:10;25.27;;;15.65;;
12896;SDS011;6516;35.028;32.372;2023-02-26T03:01:45;24.73;;;15.27;;
12896;SDS011;6516;35.028;32.372;2023-02-26T03:04:23;27.45;;;15.68;;
12896;SDS011;6516;35.028;32.372;2023-02-26T03:06:51;25.07;;;15.33;;
12896;SDS011;6516;35.028;32.372;2023-02-26T03:09:19;26.02;;;15.32;;
12896;SDS011;6516;35.028;32.372;2023-02-26T03:11:46;25.23;;;15.18;;
12896;SDS011;6516;35.028;32.372;2023-02-26T03:14:14;28.88;;;16.10;;
12896;SDS011;6516;35.028;32.372;2023-02-26T03:16:51;26.55;;;16.77;;
12896;SDS011;6516;35.028;32.372;2023-02-26T03:19:40;28.93;;;15.87;;
12896;SDS011;6516;35.028;32.372;2023-02-26T03:22:21;25.67;;;14.85;;
12896;SDS011;6516;35.028;32.372;2023-02-26T03:24:58;27.80;;;16.02;;
12896;SDS011;6516;35.028;32.372;2023-02-26T03:27:35;27.98;;;16.50;;
12896;SDS011;6516;35.028;32.372;2023-02-26T03:30:13;26.60;;;16.10;;
12896;SDS011;6516;35.028;32.372;2023-02-26T03:32:49;28.73;;;16.53;;
12896;SDS011;6516;35.028;32.372;2023-02-26T03:35:25;26.20;;;15.57;;
12896;SDS011;6516;35.028;32.372;2023-02-26T03:38:00;28.05;;;15.65;;
12896;SDS011;6516;35.028;32.372;2023-02-26T03:40:34;26.38;;;15.80;;
12896;SDS011;6516;35.028;32.372;2023-02-26T03:43:08;25.88;;;14.93;;
12896;SDS011;6516;35.028;32.372;2023-02-26T03:45:39;21.27;;;13.17;;
12896;SDS011;6516;35.028;32.372;2023-02-26T03:48:14;24.35;;;14.00;;
12896;SDS011;6516;35.028;32.372;2023-02-26T03:50:47;21.90;;;14.20;;
12896;SDS011;6516;35.028;32.372;2023-02-26T03:53:18;22.75;;;14.00;;
12896;SDS011;6516;35.028;32.372;2023-02-26T03:55:53;21.10;;;12.98;;
12896;SDS011;6516;35.028;32.372;2023-02-26T03:58:26;23.87;;;14.23;;
12896;SDS011;6516;35.028;32.372;2023-02-26T04:00:55;20.95;;;13.60;;
12896;SDS011;6516;35.028;32.372;2023-02-26T04:03:31;24.30;;;14.18;;
12896;SDS011;6516;35.028;32.372;2023-02-26T04:06:04;22.67;;;14.20;;
12896;SDS011;6516;35.028;32.372;2023-02-26T04:08:33;21.55;;;13.70;;
12896;SDS011;6516;35.028;32.372;2023-02-26T04:11:03;24.90;;;14.47;;
12896;SDS011;6516;35.028;32.372;2023-02-26T04:13:35;24.35;;;14.88;;
12896;SDS011;6516;35.028;32.372;2023-02-26T04:16:03;24.73;;;14.30;;
12896;SDS011;6516;35.028;32.372;2023-02-26T04:18:33;22.25;;;14.00;;
12896;SDS011;6516;35.028;32.372;2023-02-26T04:21:01;26.17;;;14.70;;
12896;SDS011;6516;35.028;32.372;2023-02-26T04:23:29;25.07;;;14.40;;
12896;SDS011;6516;35.028;32.372;2023-02-26T04:25:56;23.60;;;14.25;;
12896;SDS011;6516;35.028;32.372;2023-02-26T04:28:24;23.73;;;14.07;;
12896;SDS011;6516;35.028;32.372;2023-02-26T04:30:52;23.88;;;14.57;;
12896;SDS011;6516;35.028;32.372;2023-02-26T04:33:20;22.73;;;14.13;;
12896;SDS011;6516;35.028;32.372;2023-02-26T04:35:50;23.90;;;13.57;;
12896;SDS011;6516;35.028;32.372;2023-02-26T04:38:17;21.83;;;13.50;;
12896;SDS011;6516;35.028;32.372;2023-02-26T04:40:45;22.10;;;13.55;;
12896;SDS011;6516;35.028;32.372;2023-02-26T04:43:15;24.95;;;14.70;;
12896;SDS011;6516;35.028;32.372;2023-02-26T04:45:44;24.65;;;15.00;;
12896;SDS011;6516;35.028;32.372;2023-02-26T04:48:12;24.43;;;14.60;;
12896;SDS011;6516;35.028;32.372;2023-02-26T04:50:40;25.08;;;14.77;;
12896;SDS011;6516;35.028;32.372;2023-02-26T04:53:09;21.05;;;13.48;;
12896;SDS011;6516;35.028;32.372;2023-02-26T04:55:37;24.02;;;14.35;;
12896;SDS011;6516;35.028;32.372;2023-02-26T04:58:06;22.27;;;13.93;;
12896;SDS011;6516;35.028;32.372;2023-02-26T05:00:34;24.43;;;14.00;;
12896;SDS011;6516;35.028;32.372;2023-02-26T05:03:02;21.63;;;13.77;;
12896;SDS011;6516;35.028;32.372;2023-02-26T05:05:30;22.13;;;14.52;;
12896;SDS011;6516;35.028;32.372;2023-02-26T05:07:58;19.55;;;13.10;;
12896;SDS011;6516;35.028;32.372;2023-02-26T05:10:27;19.10;;;12.50;;
12896;SDS011;6516;35.028;32.372;2023-02-26T05:12:55;20.73;;;13.23;;
12896;SDS011;6516;35.028;32.372;2023-02-26T05:15:22;19.40;;;13.10;;
12896;SDS011;6516;35.028;32.372;2023-02-26T05:17:50;21.75;;;13.50;;
12896;SDS011;6516;35.028;32.372;2023-02-26T05:20:18;20.73;;;13.00;;
12896;SDS011;6516;35.028;32.372;2023-02-26T05:22:46;22.02;;;14.27;;
12896;SDS011;6516;35.028;32.372;2023-02-26T05:25:14;24.40;;;15.30;;
12896;SDS011;6516;35.028;32.372;2023-02-26T05:27:43;22.80;;;13.90;;
12896;SDS011;6516;35.028;32.372;2023-02-26T05:30:12;20.48;;;13.50;;
12896;SDS011;6516;35.028;32.372;2023-02-26T05:32:41;21.90;;;14.02;;
12896;SDS011;6516;35.028;32.372;2023-02-26T05:35:10;21.20;;;14.25;;
12896;SDS011;6516;35.028;32.372;2023-02-26T05:37:38;23.10;;;14.93;;
12896;SDS011;6516;35.028;32.372;2023-02-26T05:40:09;22.70;;;14.65;;
12896;SDS011;6516;35.028;32.372;2023-02-26T05:42:38;23.23;;;15.05;;
12896;SDS011;6516;35.028;32.372;2023-02-26T05:45:08;23.08;;;15.25;;
12896;SDS011;6516;35.028;32.372;2023-02-26T05:47:36;23.35;;;15.30;;
12896;SDS011;6516;35.028;32.372;2023-02-26T05:50:05;23.17;;;15.27;;
12896;SDS011;6516;35.028;32.372;2023-02-26T05:52:34;22.17;;;14.52;;
12896;SDS011;6516;35.028;32.372;2023-02-26T05:55:02;23.13;;;14.85;;
12896;SDS011;6516;35.028;32.372;2023-02-26T05:57:31;22.73;;;14.43;;
12896;SDS011;6516;35.028;32.372;2023-02-26T05:59:59;22.10;;;14.77;;
12896;SDS011;6516;35.028;32.372;2023-02-26T06:02:28;20.50;;;14.60;;
12896;SDS011;6516;35.028;32.372;2023-02-26T06:04:56;18.75;;;13.38;;
12896;SDS011;6516;35.028;32.372;2023-02-26T06:07:24;17.80;;;13.13;;
12896;SDS011;6516;35.028;32.372;2023-02-26T06:09:52;16.25;;;12.15;;
12896;SDS011;6516;35.028;32.372;2023-02-26T06:12:19;15.80;;;11.90;;
12896;SDS011;6516;35.028;32.372;2023-02-26T06:14:47;15.37;;;11.73;;
12896;SDS011;6516;35.028;32.372;2023-02-26T06:17:15;13.75;;;10.90;;
12896;SDS011;6516;35.028;32.372;2023-02-26T06:19:45;13.70;;;10.48;;
12896;SDS011;6516;35.028;32.372;2023-02-26T06:22:12;15.27;;;10.88;;
12896;SDS011;6516;35.028;32.372;2023-02-26T06:24:40;15.35;;;9.82;;
12896;SDS011;6516;35.028;32.372;2023-02-26T06:27:08;13.47;;;10.20;;
12896;SDS011;6516;35.028;32.372;2023-02-26T06:29:36;13.15;;;9.73;;
12896;SDS011;6516;35.028;32.372;2023-02-26T06:32:03;12.77;;;9.60;;
12896;SDS011;6516;35.028;32.372;2023-02-26T06:34:31;13.88;;;9.38;;
12896;SDS011;6516;35.028;32.372;2023-02-26T06:37:01;12.27;;;9.15;;
12896;SDS011;6516;35.028;32.372;2023-02-26T06:39:28;13.20;;;8.90;;
12896;SDS011;6516;35.028;32.372;2023-02-26T06:41:56;11.27;;;9.38;;
12896;SDS011;6516;35.028;32.372;2023-02-26T06:44:24;11.00;;;8.70;;
12896;SDS011;6516;35.028;32.372;2023-02-26T06:46:52;12.65;;;8.98;;
12896;SDS011;6516;35.028;32.372;2023-02-26T06:49:20;12.38;;;9.65;;
12896;SDS011;6516;35.028;32.372;2023-02-26T06:51:47;11.47;;;8.93;;
12896;SDS011;6516;35.028;32.372;2023-02-26T06:54:17;12.27;;;9.32;;
12896;SDS011;6516;35.028;32.372;2023-02-26T06:56:44;12.23;;;9.45;;
12896;SDS011;6516;35.028;32.372;2023-02-26T06:59:12;11.98;;;9.80;;
12896;SDS011;6516;35.028;32.372;2023-02-26T07:01:40;12.23;;;9.40;;
12896;SDS011;6516;35.028;32.372;2023-02-26T07:04:08;12.27;;;9.37;;
12896;SDS011;6516;35.028;32.372;2023-02-26T07:06:36;13.50;;;10.30;;
12896;SDS011;6516;35.028;32.372;2023-02-26T07:09:04;12.45;;;9.35;;
12896;SDS011;6516;35.028;32.372;2023-02-26T07:11:33;11.57;;;9.68;;
12896;SDS011;6516;35.028;32.372;2023-02-26T07:14:00;13.05;;;9.65;;
12896;SDS011;6516;35.028;32.372;2023-02-26T07:16:28;11.17;;;9.07;;
12896;SDS011;6516;35.028;32.372;2023-02-26T07:18:56;11.25;;;9.07;;
12896;SDS011;6516;35.028;32.372;2023-02-26T07:21:24;11.73;;;8.95;;
12896;SDS011;6516;35.028;32.372;2023-02-26T07:23:53;12.48;;;8.85;;
12896;SDS011;6516;35.028;32.372;2023-02-26T07:26:20;12.00;;;8.98;;
12896;SDS011;6516;35.028;32.372;2023-02-26T07:28:50;11.70;;;9.10;;
12896;SDS011;6516;35.028;32.372;2023-02-26T07:31:18;11.32;;;8.45;;
12896;SDS011;6516;35.028;32.372;2023-02-26T07:33:45;13.70;;;9.38;;
12896;SDS011;6516;35.028;32.372;2023-02-26T07:36:14;12.80;;;8.95;;
12896;SDS011;6516;35.028;32.372;2023-02-26T07:38:42;12.18;;;9.07;;
12896;SDS011;6516;35.028;32.372;2023-02-26T07:41:09;11.97;;;9.57;;
12896;SDS011;6516;35.028;32.372;2023-02-26T07:43:37;10.48;;;8.65;;
12896;SDS011;6516;35.028;32.372;2023-02-26T07:46:06;11.90;;;8.57;;
12896;SDS011;6516;35.028;32.372;2023-02-26T07:48:34;10.27;;;8.10;;
12896;SDS011;6516;35.028;32.372;2023-02-26T07:51:02;10.93;;;8.80;;
12896;SDS011;6516;35.028;32.372;2023-02-26T07:53:32;12.17;;;8.77;;
12896;SDS011;6516;35.028;32.372;2023-02-26T07:56:00;12.65;;;9.60;;
12896;SDS011;6516;35.028;32.372;2023-02-26T07:58:28;11.38;;;8.73;;
12896;SDS011;6516;35.028;32.372;2023-02-26T08:00:56;13.88;;;8.95;;
12896;SDS011;6516;35.028;32.372;2023-02-26T08:03:26;12.80;;;9.02;;
12896;SDS011;6516;35.028;32.372;2023-02-26T08:05:53;11.67;;;8.80;;
12896;SDS011;6516;35.028;32.372;2023-02-26T08:08:21;12.07;;;9.02;;
12896;SDS011;6516;35.028;32.372;2023-02-26T08:10:49;12.38;;;8.95;;
12896;SDS011;6516;35.028;32.372;2023-02-26T08:13:16;11.98;;;8.95;;
12896;SDS011;6516;35.028;32.372;2023-02-26T08:15:46;11.27;;;9.00;;
12896;SDS011;6516;35.028;32.372;2023-02-26T08:18:14;12.23;;;9.03;;
12896;SDS011;6516;35.028;32.372;2023-02-26T08:20:43;12.15;;;9.77;;
12896;SDS011;6516;35.028;32.372;2023-02-26T08:23:11;14.38;;;9.82;;
12896;SDS011;6516;35.028;32.372;2023-02-26T08:25:38;13.23;;;9.60;;
12896;SDS011;6516;35.028;32.372;2023-02-26T08:28:06;12.43;;;9.70;;
12896;SDS011;6516;35.028;32.372;2023-02-26T08:30:34;11.93;;;9.83;;
12896;SDS011;6516;35.028;32.372;2023-02-26T08:33:02;12.88;;;9.75;;
12896;SDS011;6516;35.028;32.372;2023-02-26T08:35:29;12.55;;;9.88;;
12896;SDS011;6516;35.028;32.372;2023-02-26T08:37:59;11.70;;;9.43;;
12896;SDS011;6516;35.028;32.372;2023-02-26T08:40:26;13.55;;;9.95;;
12896;SDS011;6516;35.028;32.372;2023-02-26T08:42:54;12.07;;;9.23;;
12896;SDS011;6516;35.028;32.372;2023-02-26T08:45:22;11.30;;;9.38;;
12896;SDS011;6516;35.028;32.372;2023-02-26T08:47:50;15.57;;;9.68;;
12896;SDS011;6516;35.028;32.372;2023-02-26T08:50:19;12.88;;;9.75;;
12896;SDS011;6516;35.028;32.372;2023-02-26T08:52:47;11.40;;;9.10;;
12896;SDS011;6516;35.028;32.372;2023-02-26T08:55:16;12.10;;;10.30;;
12896;SDS011;6516;35.028;32.372;2023-02-26T08:57:44;13.18;;;8.95;;
12896;SDS011;6516;35.028;32.372;2023-02-26T09:00:12;11.85;;;9.27;;
12896;SDS011;6516;35.028;32.372;2023-02-26T09:02:42;11.95;;;9.48;;
12896;SDS011;6516;35.028;32.372;2023-02-26T09:05:10;11.20;;;8.70;;
12896;SDS011;6516;35.028;32.372;2023-02-26T09:07:39;13.00;;;9.63;;
12896;SDS011;6516;35.028;32.372;2023-02-26T09:10:08;11.43;;;9.30;;
12896;SDS011;6516;35.028;32.372;2023-02-26T09:12:39;11.40;;;8.85;;
12896;SDS011;6516;35.028;32.372;2023-02-26T09:15:07;10.77;;;8.70;;
12896;SDS011;6516;35.028;32.372;2023-02-26T09:17:36;11.75;;;9.52;;
12896;SDS011;6516;35.028;32.372;2023-02-26T09:20:05;11.03;;;8.70;;
12896;SDS011;6516;35.028;32.372;2023-02-26T09:22:34;11.52;;;9.25;;
12896;SDS011;6516;35.028;32.372;2023-02-26T09:25:02;11.27;;;8.93;;
12896;SDS011;6516;35.028;32.372;2023-02-26T09:27:31;12.60;;;9.65;;
12896;SDS011;6516;35.028;32.372;2023-02-26T09:30:01;15.80;;;10.20;;
12896;SDS011;6516;35.028;32.372;2023-02-26T09:32:29;13.17;;;9.37;;
12896;SDS011;6516;35.028;32.372;2023-02-26T09:34:57;12.55;;;10.52;;
12896;SDS011;6516;35.028;32.372;2023-02-26T09:37:25;13.50;;;9.77;;
12896;SDS011;6516;35.028;32.372;2023-02-26T09:39:53;12.27;;;10.38;;
12896;SDS011;6516;35.028;32.372;2023-02-26T09:42:25;12.65;;;10.23;;
12896;SDS011;6516;35.028;32.372;2023-02-26T09:45:11;12.27;;;9.80;;
12896;SDS011;6516;35.028;32.372;2023-02-26T09:47:48;12.35;;;9.95;;
12896;SDS011;6516;35.028;32.372;2023-02-26T09:50:20;13.18;;;9.88;;
12896;SDS011;6516;35.028;32.372;2023-02-26T09:52:54;11.90;;;9.20;;
12896;SDS011;6516;35.028;32.372;2023-02-26T09:55:28;13.60;;;9.60;;
12896;SDS011;6516;35.028;32.372;2023-02-26T09:58:01;12.30;;;9.43;;
12896;SDS011;6516;35.028;32.372;2023-02-26T10:00:33;10.80;;;8.98;;
12896;SDS011;6516;35.028;32.372;2023-02-26T10:03:11;11.48;;;8.85;;
12896;SDS011;6516;35.028;32.372;2023-02-26T10:05:54;12.68;;;9.20;;
12896;SDS011;6516;35.028;32.372;2023-02-26T10:08:52;12.40;;;9.27;;
12896;SDS011;6516;35.028;32.372;2023-02-26T10:11:35;11.67;;;8.97;;
12896;SDS011;6516;35.028;32.372;2023-02-26T10:14:14;12.30;;;9.48;;
12896;SDS011;6516;35.028;32.372;2023-02-26T10:16:50;10.35;;;8.73;;
12896;SDS011;6516;35.028;32.372;2023-02-26T10:19:26;11.98;;;9.60;;
12896;SDS011;6516;35.028;32.372;2023-02-26T10:22:00;11.73;;;8.88;;
12896;SDS011;6516;35.028;32.372;2023-02-26T10:24:36;13.13;;;9.97;;
12896;SDS011;6516;35.028;32.372;2023-02-26T10:27:10;11.45;;;9.00;;
12896;SDS011;6516;35.028;32.372;2023-02-26T10:29:43;11.82;;;8.80;;
12896;SDS011;6516;35.028;32.372;2023-02-26T10:32:22;13.15;;;9.50;;
12896;SDS011;6516;35.028;32.372;2023-02-26T10:34:56;12.30;;;9.38;;
12896;SDS011;6516;35.028;32.372;2023-02-26T10:37:32;11.60;;;9.40;;
12896;SDS011;6516;35.028;32.372;2023-02-26T10:40:11;12.63;;;9.02;;
12896;SDS011;6516;35.028;32.372;2023-02-26T10:42:45;13.23;;;9.35;;
12896;SDS011;6516;35.028;32.372;2023-02-26T10:45:23;11.85;;;8.85;;
12896;SDS011;6516;35.028;32.372;2023-02-26T10:48:11;10.13;;;8.40;;
12896;SDS011;6516;35.028;32.372;2023-02-26T10:50:53;11.27;;;8.17;;
12896;SDS011;6516;35.028;32.372;2023-02-26T10:53:23;10.38;;;8.40;;
12896;SDS011;6516;35.028;32.372;2023-02-26T10:56:01;11.43;;;8.95;;
12896;SDS011;6516;35.028;32.372;2023-02-26T10:58:33;12.10;;;9.35;;
12896;SDS011;6516;35.028;32.372;2023-02-26T11:01:02;13.73;;;9.50;;
12896;SDS011;6516;35.028;32.372;2023-02-26T11:03:41;11.07;;;8.47;;
12896;SDS011;6516;35.028;32.372;2023-02-26T11:06:11;9.93;;;7.93;;
12896;SDS011;6516;35.028;32.372;2023-02-26T11:08:54;10.32;;;7.82;;
12896;SDS011;6516;35.028;32.372;2023-02-26T11:11:34;9.50;;;7.80;;
12896;SDS011;6516;35.028;32.372;2023-02-26T11:14:06;9.98;;;8.30;;
12896;SDS011;6516;35.028;32.372;2023-02-26T11:16:40;9.67;;;7.50;;
12896;SDS011;6516;35.028;32.372;2023-02-26T11:19:15;10.05;;;7.95;;
12896;SDS011;6516;35.028;32.372;2023-02-26T11:21:46;11.05;;;8.63;;
12896;SDS011;6516;35.028;32.372;2023-02-26T11:24:26;13.00;;;9.23;;
12896;SDS011;6516;35.028;32.372;2023-02-26T11:26:57;12.05;;;10.20;;
12896;SDS011;6516;35.028;32.372;2023-02-26T11:29:32;11.83;;;10.20;;
12896;SDS011;6516;35.028;32.372;2023-02-26T11:32:04;14.48;;;10.43;;
12896;SDS011;6516;35.028;32.372;2023-02-26T11:34:38;12.93;;;10.63;;
12896;SDS011;6516;35.028;32.372;2023-02-26T11:37:13;13.32;;;10.93;;
12896;SDS011;6516;35.028;32.372;2023-02-26T11:39:46;12.55;;;10.38;;
12896;SDS011;6516;35.028;32.372;2023-02-26T11:42:24;12.50;;;10.17;;
12896;SDS011;6516;35.028;32.372;2023-02-26T11:44:53;14.38;;;11.00;;
12896;SDS011;6516;35.028;32.372;2023-02-26T11:47:25;12.45;;;10.50;;
12896;SDS011;6516;35.028;32.372;2023-02-26T11:49:59;13.32;;;10.15;;
12896;SDS011;6516;35.028;32.372;2023-02-26T11:52:32;12.85;;;10.73;;
12896;SDS011;6516;35.028;32.372;2023-02-26T11:55:02;11.93;;;10.63;;
12896;SDS011;6516;35.028;32.372;2023-02-26T11:57:44;12.27;;;10.68;;
12896;SDS011;6516;35.028;32.372;2023-02-26T12:00:17;12.73;;;10.35;;
12896;SDS011;6516;35.028;32.372;2023-02-26T12:02:49;12.13;;;9.90;;
12896;SDS011;6516;35.028;32.372;2023-02-26T12:05:19;12.70;;;9.43;;
12896;SDS011;6516;35.028;32.372;2023-02-26T12:07:47;14.27;;;10.90;;
12896;SDS011;6516;35.028;32.372;2023-02-26T12:10:16;14.75;;;10.50;;
12896;SDS011;6516;35.028;32.372;2023-02-26T12:12:54;13.35;;;10.55;;
12896;SDS011;6516;35.028;32.372;2023-02-26T12:15:34;12.35;;;10.30;;
12896;SDS011;6516;35.028;32.372;2023-02-26T12:18:22;12.68;;;10.52;;
12896;SDS011;6516;35.028;32.372;2023-02-26T12:21:11;13.07;;;10.33;;
12896;SDS011;6516;35.028;32.372;2023-02-26T12:27:18;14.00;;;10.43;;
12896;SDS011;6516;35.028;32.372;2023-02-26T12:30:02;13.10;;;10.18;;
12896;SDS011;6516;35.028;32.372;2023-02-26T12:32:52;12.82;;;10.45;;
12896;SDS011;6516;35.028;32.372;2023-02-26T12:35:45;11.80;;;9.60;;
12896;SDS011;6516;35.028;32.372;2023-02-26T12:38:29;12.27;;;10.27;;
12896;SDS011;6516;35.028;32.372;2023-02-26T12:41:14;13.25;;;10.35;;
12896;SDS011;6516;35.028;32.372;2023-02-26T12:43:54;12.52;;;9.90;;
12896;SDS011;6516;35.028;32.372;2023-02-26T12:46:31;16.17;;;11.05;;
12896;SDS011;6516;35.028;32.372;2023-02-26T12:49:23;13.47;;;10.30;;
12896;SDS011;6516;35.028;32.372;2023-02-26T12:52:22;12.90;;;10.07;;
12896;SDS011;6516;35.028;32.372;2023-02-26T12:55:19;13.38;;;10.82;;
12896;SDS011;6516;35.028;32.372;2023-02-26T12:58:03;12.77;;;10.73;;
12896;SDS011;6516;35.028;32.372;2023-02-26T13:01:09;14.73;;;10.55;;
12896;SDS011;6516;35.028;32.372;2023-02-26T13:04:15;13.63;;;10.63;;
12896;SDS011;6516;35.028;32.372;2023-02-26T13:07:42;12.65;;;10.05;;
12896;SDS011;6516;35.028;32.372;2023-02-26T13:10:28;13.45;;;10.68;;
12896;SDS011;6516;35.028;32.372;2023-02-26T13:13:14;14.57;;;11.00;;
12896;SDS011;6516;35.028;32.372;2023-02-26T13:16:07;15.25;;;10.30;;
12896;SDS011;6516;35.028;32.372;2023-02-26T13:18:49;14.80;;;10.20;;
12896;SDS011;6516;35.028;32.372;2023-02-26T13:21:27;13.18;;;10.70;;
12896;SDS011;6516;35.028;32.372;2023-02-26T13:24:01;16.90;;;11.30;;
12896;SDS011;6516;35.028;32.372;2023-02-26T13:26:34;13.00;;;10.98;;
12896;SDS011;6516;35.028;32.372;2023-02-26T13:29:04;13.63;;;10.75;;
12896;SDS011;6516;35.028;32.372;2023-02-26T13:31:38;15.63;;;11.23;;
12896;SDS011;6516;35.028;32.372;2023-02-26T13:34:11;14.65;;;11.35;;
12896;SDS011;6516;35.028;32.372;2023-02-26T13:36:42;13.15;;;11.35;;
12896;SDS011;6516;35.028;32.372;2023-02-26T13:39:17;15.15;;;10.50;;
12896;SDS011;6516;35.028;32.372;2023-02-26T13:42:06;12.90;;;10.98;;
12896;SDS011;6516;35.028;32.372;2023-02-26T13:44:50;15.73;;;11.83;;
12896;SDS011;6516;35.028;32.372;2023-02-26T13:47:35;16.40;;;11.82;;
12896;SDS011;6516;35.028;32.372;2023-02-26T13:50:25;14.50;;;11.50;;
12896;SDS011;6516;35.028;32.372;2023-02-26T13:53:01;14.32;;;11.40;;
12896;SDS011;6516;35.028;32.372;2023-02-26T13:55:35;15.60;;;12.60;;
12896;SDS011;6516;35.028;32.372;2023-02-26T13:58:29;16.53;;;11.80;;
12896;SDS011;6516;35.028;32.372;2023-02-26T14:01:06;14.50;;;11.57;;
12896;SDS011;6516;35.028;32.372;2023-02-26T14:03:39;15.95;;;12.07;;
12896;SDS011;6516;35.028;32.372;2023-02-26T14:06:35;15.23;;;11.38;;
12896;SDS011;6516;35.028;32.372;2023-02-26T14:12:22;15.63;;;11.87;;
12896;SDS011;6516;35.028;32.372;2023-02-26T14:18:18;13.70;;;11.07;;
12896;SDS011;6516;35.028;32.372;2023-02-26T14:20:52;16.27;;;12.13;;
12896;SDS011;6516;35.028;32.372;2023-02-26T14:24:06;16.13;;;12.18;;
12896;SDS011;6516;35.028;32.372;2023-02-26T14:26:44;15.40;;;12.17;;
12896;SDS011;6516;35.028;32.372;2023-02-26T14:29:16;16.45;;;12.40;;
12896;SDS011;6516;35.028;32.372;2023-02-26T14:34:52;18.20;;;12.43;;
12896;SDS011;6516;35.028;32.372;2023-02-26T14:37:25;14.77;;;11.95;;
12896;SDS011;6516;35.028;32.372;2023-02-26T14:39:54;15.53;;;12.17;;
12896;SDS011;6516;35.028;32.372;2023-02-26T14:42:32;16.90;;;13.13;;
12896;SDS011;6516;35.028;32.372;2023-02-26T14:45:07;15.75;;;12.50;;
12896;SDS011;6516;35.028;32.372;2023-02-26T14:47:49;15.40;;;12.27;;
12896;SDS011;6516;35.028;32.372;2023-02-26T14:50:18;16.52;;;13.32;;
12896;SDS011;6516;35.028;32.372;2023-02-26T14:52:53;17.00;;;13.20;;
12896;SDS011;6516;35.028;32.372;2023-02-26T14:56:04;16.35;;;12.77;;
12896;SDS011;6516;35.028;32.372;2023-02-26T14:58:42;16.20;;;13.02;;
12896;SDS011;6516;35.028;32.372;2023-02-26T15:01:29;15.90;;;13.20;;
12896;SDS011;6516;35.028;32.372;2023-02-26T15:07:19;16.80;;;13.43;;
12896;SDS011;6516;35.028;32.372;2023-02-26T15:10:14;18.30;;;13.52;;
12896;SDS011;6516;35.028;32.372;2023-02-26T15:16:02;16.40;;;13.48;;
12896;SDS011;6516;35.028;32.372;2023-02-26T15:18:46;16.83;;;13.32;;
12896;SDS011;6516;35.028;32.372;2023-02-26T15:21:29;16.23;;;13.60;;
12896;SDS011;6516;35.028;32.372;2023-02-26T15:24:08;18.48;;;14.32;;